Vallican, Canada
Current Conditions -  °F | °C
As of 8:42 AM on Monday 24 Nov 2014 (Local Time) from CYCG Reporting Station
Overcast Overcast  
Wind Chill: 24°   Ceiling: 11000
Heat Index: 32°   Visibility: 15mi
Dew Point: 30°   Wind: 9mph
Humidity: 93%   Direction: 160°SSE
Pressure: 30.33"   Gusts: NA
Location:  49.57°N, 117.65°W
Report Text: CYCG 241642Z 16008KT 120V180 15SM FEW008 SCT012 OVC110 00/M01 A3033 RMK SF1SC3AC4 SLP291
Loading
Personal Weather Stations






























Interactive Weather Map New forecast layout! Learn more

10-Day Weather Forecast

Advertisements
Track Severe Weather on mobile